sensor_id;sensor_type;location;lat;lon;timestamp;temperature;humidity
64012;DHT22;50211;52.768;12.124;2023-05-07T00:00:17;8.60;99.90
64012;DHT22;50211;52.768;12.124;2023-05-07T00:02:44;8.60;99.90
64012;DHT22;50211;52.768;12.124;2023-05-07T00:05:10;8.60;99.90
64012;DHT22;50211;52.768;12.124;2023-05-07T00:07:36;8.50;99.90
64012;DHT22;50211;52.768;12.124;2023-05-07T00:10:02;8.60;99.90
64012;DHT22;50211;52.768;12.124;2023-05-07T00:12:27;8.60;99.90
64012;DHT22;50211;52.768;12.124;2023-05-07T00:14:56;8.60;99.90
64012;DHT22;50211;52.768;12.124;2023-05-07T00:17:22;8.60;99.90
64012;DHT22;50211;52.768;12.124;2023-05-07T00:19:48;8.60;99.90
64012;DHT22;50211;52.768;12.124;2023-05-07T00:22:13;8.60;99.90
64012;DHT22;50211;52.768;12.124;2023-05-07T00:24:39;8.60;99.90
64012;DHT22;50211;52.768;12.124;2023-05-07T00:27:04;8.60;99.90
64012;DHT22;50211;52.768;12.124;2023-05-07T00:29:30;8.60;99.90
64012;DHT22;50211;52.768;12.124;2023-05-07T00:31:55;8.60;99.90
64012;DHT22;50211;52.768;12.124;2023-05-07T00:34:21;8.60;99.90
64012;DHT22;50211;52.768;12.124;2023-05-07T00:36:47;8.60;99.90
64012;DHT22;50211;52.768;12.124;2023-05-07T00:39:13;8.60;99.90
64012;DHT22;50211;52.768;12.124;2023-05-07T00:41:38;8.50;99.90
64012;DHT22;50211;52.768;12.124;2023-05-07T00:44:04;8.50;99.90
64012;DHT22;50211;52.768;12.124;2023-05-07T00:46:30;8.50;99.90
64012;DHT22;50211;52.768;12.124;2023-05-07T00:48:56;8.50;99.90
64012;DHT22;50211;52.768;12.124;2023-05-07T00:51:22;8.50;99.90
64012;DHT22;50211;52.768;12.124;2023-05-07T00:53:48;8.50;99.90
64012;DHT22;50211;52.768;12.124;2023-05-07T00:56:14;8.50;99.90
64012;DHT22;50211;52.768;12.124;2023-05-07T00:58:40;8.50;99.90
64012;DHT22;50211;52.768;12.124;2023-05-07T01:01:06;8.50;99.90
64012;DHT22;50211;52.768;12.124;2023-05-07T01:03:31;8.60;99.90
64012;DHT22;50211;52.768;12.124;2023-05-07T01:05:57;8.50;99.90
64012;DHT22;50211;52.768;12.124;2023-05-07T01:08:24;8.50;99.90
64012;DHT22;50211;52.768;12.124;2023-05-07T01:10:52;8.60;99.90
64012;DHT22;50211;52.768;12.124;2023-05-07T01:13:18;8.60;99.90
64012;DHT22;50211;52.768;12.124;2023-05-07T01:15:44;8.60;99.90
64012;DHT22;50211;52.768;12.124;2023-05-07T01:18:10;8.70;99.90
64012;DHT22;50211;52.768;12.124;2023-05-07T01:20:35;8.70;99.90
64012;DHT22;50211;52.768;12.124;2023-05-07T01:23:01;8.60;99.90
64012;DHT22;50211;52.768;12.124;2023-05-07T01:25:28;8.70;99.90
64012;DHT22;50211;52.768;12.124;2023-05-07T01:27:54;8.60;99.90
64012;DHT22;50211;52.768;12.124;2023-05-07T01:30:20;8.60;99.90
64012;DHT22;50211;52.768;12.124;2023-05-07T01:32:53;8.60;99.90
64012;DHT22;50211;52.768;12.124;2023-05-07T01:35:26;8.60;99.90
64012;DHT22;50211;52.768;12.124;2023-05-07T01:37:53;8.60;99.90
64012;DHT22;50211;52.768;12.124;2023-05-07T01:40:19;8.60;99.90
64012;DHT22;50211;52.768;12.124;2023-05-07T01:42:45;8.60;99.90
64012;DHT22;50211;52.768;12.124;2023-05-07T01:45:11;8.70;99.90
64012;DHT22;50211;52.768;12.124;2023-05-07T01:47:37;8.60;99.90
64012;DHT22;50211;52.768;12.124;2023-05-07T01:50:06;8.70;99.90
64012;DHT22;50211;52.768;12.124;2023-05-07T01:52:33;8.60;99.90
64012;DHT22;50211;52.768;12.124;2023-05-07T01:54:59;8.60;99.90
64012;DHT22;50211;52.768;12.124;2023-05-07T01:57:24;8.60;99.90
64012;DHT22;50211;52.768;12.124;2023-05-07T01:59:50;8.60;99.90
64012;DHT22;50211;52.768;12.124;2023-05-07T02:02:16;8.60;99.90
64012;DHT22;50211;52.768;12.124;2023-05-07T02:04:41;8.60;99.90
64012;DHT22;50211;52.768;12.124;2023-05-07T02:07:07;8.60;99.90
64012;DHT22;50211;52.768;12.124;2023-05-07T02:09:32;8.60;99.90
64012;DHT22;50211;52.768;12.124;2023-05-07T02:11:58;8.60;99.90
64012;DHT22;50211;52.768;12.124;2023-05-07T02:14:23;8.60;99.90
64012;DHT22;50211;52.768;12.124;2023-05-07T02:16:49;8.60;99.90
64012;DHT22;50211;52.768;12.124;2023-05-07T02:19:14;8.60;99.90
64012;DHT22;50211;52.768;12.124;2023-05-07T02:21:40;8.60;99.90
64012;DHT22;50211;52.768;12.124;2023-05-07T02:24:05;8.60;99.90
64012;DHT22;50211;52.768;12.124;2023-05-07T02:26:31;8.60;99.90
64012;DHT22;50211;52.768;12.124;2023-05-07T02:28:56;8.60;99.90
64012;DHT22;50211;52.768;12.124;2023-05-07T02:31:22;8.60;99.90
64012;DHT22;50211;52.768;12.124;2023-05-07T02:33:47;8.60;99.90
64012;DHT22;50211;52.768;12.124;2023-05-07T02:36:13;8.60;99.90
64012;DHT22;50211;52.768;12.124;2023-05-07T02:38:38;8.60;99.90
64012;DHT22;50211;52.768;12.124;2023-05-07T02:41:04;8.50;99.90
64012;DHT22;50211;52.768;12.124;2023-05-07T02:43:30;8.60;99.90
64012;DHT22;50211;52.768;12.124;2023-05-07T02:46:06;8.50;99.90
64012;DHT22;50211;52.768;12.124;2023-05-07T02:48:32;8.60;99.90
64012;DHT22;50211;52.768;12.124;2023-05-07T02:50:58;8.60;99.90
64012;DHT22;50211;52.768;12.124;2023-05-07T02:53:25;8.60;99.90
64012;DHT22;50211;52.768;12.124;2023-05-07T02:55:54;8.60;99.90
64012;DHT22;50211;52.768;12.124;2023-05-07T02:58:19;8.60;99.90
64012;DHT22;50211;52.768;12.124;2023-05-07T03:00:45;8.60;99.90
64012;DHT22;50211;52.768;12.124;2023-05-07T03:03:11;8.60;99.90
64012;DHT22;50211;52.768;12.124;2023-05-07T03:05:37;8.60;99.90
64012;DHT22;50211;52.768;12.124;2023-05-07T03:08:02;8.60;99.90
64012;DHT22;50211;52.768;12.124;2023-05-07T03:10:29;8.60;99.90
64012;DHT22;50211;52.768;12.124;2023-05-07T03:12:55;8.60;99.90
64012;DHT22;50211;52.768;12.124;2023-05-07T03:15:20;8.60;99.90
64012;DHT22;50211;52.768;12.124;2023-05-07T03:17:47;8.60;99.90
64012;DHT22;50211;52.768;12.124;2023-05-07T03:20:12;8.60;99.90
64012;DHT22;50211;52.768;12.124;2023-05-07T03:22:38;8.60;99.90
64012;DHT22;50211;52.768;12.124;2023-05-07T03:25:05;8.60;99.90
64012;DHT22;50211;52.768;12.124;2023-05-07T03:27:31;8.60;99.90
64012;DHT22;50211;52.768;12.124;2023-05-07T03:29:56;8.60;99.90
64012;DHT22;50211;52.768;12.124;2023-05-07T03:32:22;8.60;99.90
64012;DHT22;50211;52.768;12.124;2023-05-07T03:34:47;8.50;99.90
64012;DHT22;50211;52.768;12.124;2023-05-07T03:37:12;8.60;99.90
64012;DHT22;50211;52.768;12.124;2023-05-07T03:39:38;8.60;99.90
64012;DHT22;50211;52.768;12.124;2023-05-07T03:42:03;8.60;99.90
64012;DHT22;50211;52.768;12.124;2023-05-07T03:44:29;8.60;99.90
64012;DHT22;50211;52.768;12.124;2023-05-07T03:46:54;8.60;99.90
64012;DHT22;50211;52.768;12.124;2023-05-07T03:49:20;8.60;99.90
64012;DHT22;50211;52.768;12.124;2023-05-07T03:51:46;8.60;99.90
64012;DHT22;50211;52.768;12.124;2023-05-07T03:54:12;8.60;99.90
64012;DHT22;50211;52.768;12.124;2023-05-07T03:56:38;8.60;99.90
64012;DHT22;50211;52.768;12.124;2023-05-07T03:59:04;8.60;99.90
64012;DHT22;50211;52.768;12.124;2023-05-07T04:01:29;8.60;99.90
64012;DHT22;50211;52.768;12.124;2023-05-07T04:03:55;8.60;99.90
64012;DHT22;50211;52.768;12.124;2023-05-07T04:06:21;8.60;99.90
64012;DHT22;50211;52.768;12.124;2023-05-07T04:08:46;8.60;99.90
64012;DHT22;50211;52.768;12.124;2023-05-07T04:11:13;8.60;99.90
64012;DHT22;50211;52.768;12.124;2023-05-07T04:13:38;8.70;99.90
64012;DHT22;50211;52.768;12.124;2023-05-07T04:16:05;8.60;99.90
64012;DHT22;50211;52.768;12.124;2023-05-07T04:18:31;8.60;99.90
64012;DHT22;50211;52.768;12.124;2023-05-07T04:20:56;8.60;99.90
64012;DHT22;50211;52.768;12.124;2023-05-07T04:23:22;8.60;99.90
64012;DHT22;50211;52.768;12.124;2023-05-07T04:25:47;8.70;99.90
64012;DHT22;50211;52.768;12.124;2023-05-07T04:28:13;8.60;99.90
64012;DHT22;50211;52.768;12.124;2023-05-07T04:30:39;8.70;99.90
64012;DHT22;50211;52.768;12.124;2023-05-07T04:33:05;8.70;99.90
64012;DHT22;50211;52.768;12.124;2023-05-07T04:35:32;8.70;99.90
64012;DHT22;50211;52.768;12.124;2023-05-07T04:37:57;8.70;99.90
64012;DHT22;50211;52.768;12.124;2023-05-07T04:40:23;8.70;99.90
64012;DHT22;50211;52.768;12.124;2023-05-07T04:42:48;8.70;99.90
64012;DHT22;50211;52.768;12.124;2023-05-07T04:45:14;8.70;99.90
64012;DHT22;50211;52.768;12.124;2023-05-07T04:47:40;8.70;99.90
64012;DHT22;50211;52.768;12.124;2023-05-07T04:50:06;8.70;99.90
64012;DHT22;50211;52.768;12.124;2023-05-07T04:52:32;8.70;99.90
64012;DHT22;50211;52.768;12.124;2023-05-07T04:55:01;8.60;99.90
64012;DHT22;50211;52.768;12.124;2023-05-07T04:57:27;8.60;99.90
64012;DHT22;50211;52.768;12.124;2023-05-07T04:59:53;8.60;99.90
64012;DHT22;50211;52.768;12.124;2023-05-07T05:02:19;8.60;99.90
64012;DHT22;50211;52.768;12.124;2023-05-07T05:04:44;8.60;99.90
64012;DHT22;50211;52.768;12.124;2023-05-07T05:07:10;8.60;99.90
64012;DHT22;50211;52.768;12.124;2023-05-07T05:09:35;8.60;99.90
64012;DHT22;50211;52.768;12.124;2023-05-07T05:12:01;8.70;99.90
64012;DHT22;50211;52.768;12.124;2023-05-07T05:14:26;8.60;99.90
64012;DHT22;50211;52.768;12.124;2023-05-07T05:16:52;8.60;99.90
64012;DHT22;50211;52.768;12.124;2023-05-07T05:19:17;8.60;99.90
64012;DHT22;50211;52.768;12.124;2023-05-07T05:21:43;8.70;99.90
64012;DHT22;50211;52.768;12.124;2023-05-07T05:24:08;8.70;99.90
64012;DHT22;50211;52.768;12.124;2023-05-07T05:26:34;8.70;99.90
64012;DHT22;50211;52.768;12.124;2023-05-07T05:29:00;8.80;99.90
64012;DHT22;50211;52.768;12.124;2023-05-07T05:31:25;8.80;99.90
64012;DHT22;50211;52.768;12.124;2023-05-07T05:33:51;8.80;99.90
64012;DHT22;50211;52.768;12.124;2023-05-07T05:36:16;8.80;99.90
64012;DHT22;50211;52.768;12.124;2023-05-07T05:38:42;8.80;99.90
64012;DHT22;50211;52.768;12.124;2023-05-07T05:41:07;8.90;99.90
64012;DHT22;50211;52.768;12.124;2023-05-07T05:43:33;8.90;99.90
64012;DHT22;50211;52.768;12.124;2023-05-07T05:45:59;8.90;99.90
64012;DHT22;50211;52.768;12.124;2023-05-07T05:48:25;8.90;99.90
64012;DHT22;50211;52.768;12.124;2023-05-07T05:50:51;9.00;99.90
64012;DHT22;50211;52.768;12.124;2023-05-07T05:53:16;9.00;99.90
64012;DHT22;50211;52.768;12.124;2023-05-07T05:55:42;9.00;99.90
64012;DHT22;50211;52.768;12.124;2023-05-07T05:58:09;9.00;99.90
64012;DHT22;50211;52.768;12.124;2023-05-07T06:00:34;9.10;99.90
64012;DHT22;50211;52.768;12.124;2023-05-07T06:03:00;9.00;99.90
64012;DHT22;50211;52.768;12.124;2023-05-07T06:05:25;9.10;99.90
64012;DHT22;50211;52.768;12.124;2023-05-07T06:07:51;9.10;99.90
64012;DHT22;50211;52.768;12.124;2023-05-07T06:10:17;9.10;99.90
64012;DHT22;50211;52.768;12.124;2023-05-07T06:12:42;9.10;99.90
64012;DHT22;50211;52.768;12.124;2023-05-07T06:15:08;9.20;99.90
64012;DHT22;50211;52.768;12.124;2023-05-07T06:17:34;9.20;99.90
64012;DHT22;50211;52.768;12.124;2023-05-07T06:19:59;9.30;99.90
64012;DHT22;50211;52.768;12.124;2023-05-07T06:22:25;9.30;99.90
64012;DHT22;50211;52.768;12.124;2023-05-07T06:24:50;9.30;99.90
64012;DHT22;50211;52.768;12.124;2023-05-07T06:27:16;9.30;99.90
64012;DHT22;50211;52.768;12.124;2023-05-07T06:29:41;9.30;99.90
64012;DHT22;50211;52.768;12.124;2023-05-07T06:34:33;9.40;99.90
64012;DHT22;50211;52.768;12.124;2023-05-07T06:36:58;9.40;99.90
64012;DHT22;50211;52.768;12.124;2023-05-07T06:39:24;9.40;99.90
64012;DHT22;50211;52.768;12.124;2023-05-07T06:41:49;9.50;99.90
64012;DHT22;50211;52.768;12.124;2023-05-07T06:44:15;9.50;99.90
64012;DHT22;50211;52.768;12.124;2023-05-07T06:46:41;9.50;99.90
64012;DHT22;50211;52.768;12.124;2023-05-07T06:49:07;9.50;99.90
64012;DHT22;50211;52.768;12.124;2023-05-07T06:51:33;9.50;99.90
64012;DHT22;50211;52.768;12.124;2023-05-07T06:53:59;9.50;99.90
64012;DHT22;50211;52.768;12.124;2023-05-07T06:56:24;9.60;99.90
64012;DHT22;50211;52.768;12.124;2023-05-07T06:58:50;9.60;99.90
64012;DHT22;50211;52.768;12.124;2023-05-07T07:01:16;9.60;99.90
64012;DHT22;50211;52.768;12.124;2023-05-07T07:03:41;9.70;99.90
64012;DHT22;50211;52.768;12.124;2023-05-07T07:06:07;9.60;99.90
64012;DHT22;50211;52.768;12.124;2023-05-07T07:08:32;9.70;99.90
64012;DHT22;50211;52.768;12.124;2023-05-07T07:10:58;9.70;99.90
64012;DHT22;50211;52.768;12.124;2023-05-07T07:13:24;9.80;99.90
64012;DHT22;50211;52.768;12.124;2023-05-07T07:15:49;9.90;99.90
64012;DHT22;50211;52.768;12.124;2023-05-07T07:18:15;9.80;99.90
64012;DHT22;50211;52.768;12.124;2023-05-07T07:20:40;9.90;99.90
64012;DHT22;50211;52.768;12.124;2023-05-07T07:23:06;9.80;99.90
64012;DHT22;50211;52.768;12.124;2023-05-07T07:25:32;9.90;99.90
64012;DHT22;50211;52.768;12.124;2023-05-07T07:27:57;10.00;99.90
64012;DHT22;50211;52.768;12.124;2023-05-07T07:30:23;10.00;99.90
64012;DHT22;50211;52.768;12.124;2023-05-07T07:32:48;10.00;99.90
64012;DHT22;50211;52.768;12.124;2023-05-07T07:35:14;9.90;99.90
64012;DHT22;50211;52.768;12.124;2023-05-07T07:37:39;10.00;99.90
64012;DHT22;50211;52.768;12.124;2023-05-07T07:40:05;9.90;99.90
64012;DHT22;50211;52.768;12.124;2023-05-07T07:42:31;9.90;99.90
64012;DHT22;50211;52.768;12.124;2023-05-07T07:44:57;10.00;99.90
64012;DHT22;50211;52.768;12.124;2023-05-07T07:47:22;10.10;99.90
64012;DHT22;50211;52.768;12.124;2023-05-07T07:49:48;10.30;99.90
64012;DHT22;50211;52.768;12.124;2023-05-07T07:52:13;10.50;99.90
64012;DHT22;50211;52.768;12.124;2023-05-07T07:54:39;10.60;99.90
64012;DHT22;50211;52.768;12.124;2023-05-07T07:57:05;10.80;99.90
64012;DHT22;50211;52.768;12.124;2023-05-07T07:59:30;10.90;99.90
64012;DHT22;50211;52.768;12.124;2023-05-07T08:01:56;10.90;99.90
64012;DHT22;50211;52.768;12.124;2023-05-07T08:04:22;10.80;99.90
64012;DHT22;50211;52.768;12.124;2023-05-07T08:06:48;10.80;99.90
64012;DHT22;50211;52.768;12.124;2023-05-07T08:09:14;10.90;99.90
64012;DHT22;50211;52.768;12.124;2023-05-07T08:11:39;11.00;99.90
64012;DHT22;50211;52.768;12.124;2023-05-07T08:14:05;11.10;99.90
64012;DHT22;50211;52.768;12.124;2023-05-07T08:16:30;11.30;99.90
64012;DHT22;50211;52.768;12.124;2023-05-07T08:18:56;11.60;99.90
64012;DHT22;50211;52.768;12.124;2023-05-07T08:21:22;11.90;99.90
64012;DHT22;50211;52.768;12.124;2023-05-07T08:23:48;11.90;99.90
64012;DHT22;50211;52.768;12.124;2023-05-07T08:26:14;11.90;99.90
64012;DHT22;50211;52.768;12.124;2023-05-07T08:28:39;11.90;99.90
64012;DHT22;50211;52.768;12.124;2023-05-07T08:31:05;11.80;99.90
64012;DHT22;50211;52.768;12.124;2023-05-07T08:33:30;11.70;99.90
64012;DHT22;50211;52.768;12.124;2023-05-07T08:35:56;11.80;99.90
64012;DHT22;50211;52.768;12.124;2023-05-07T08:38:22;11.90;99.90
64012;DHT22;50211;52.768;12.124;2023-05-07T08:40:47;11.80;99.90
64012;DHT22;50211;52.768;12.124;2023-05-07T08:43:14;11.70;99.90
64012;DHT22;50211;52.768;12.124;2023-05-07T08:45:43;11.70;99.90
64012;DHT22;50211;52.768;12.124;2023-05-07T08:48:15;11.70;99.90
64012;DHT22;50211;52.768;12.124;2023-05-07T08:50:41;11.70;99.90
64012;DHT22;50211;52.768;12.124;2023-05-07T08:53:07;11.60;99.90
64012;DHT22;50211;52.768;12.124;2023-05-07T08:55:33;11.60;99.90
64012;DHT22;50211;52.768;12.124;2023-05-07T08:57:59;11.70;99.90
64012;DHT22;50211;52.768;12.124;2023-05-07T09:00:25;11.90;99.90
64012;DHT22;50211;52.768;12.124;2023-05-07T09:02:51;11.90;99.90
64012;DHT22;50211;52.768;12.124;2023-05-07T09:05:17;12.00;99.90
64012;DHT22;50211;52.768;12.124;2023-05-07T09:07:42;12.00;99.90
64012;DHT22;50211;52.768;12.124;2023-05-07T09:10:08;12.10;99.90
64012;DHT22;50211;52.768;12.124;2023-05-07T09:12:34;12.00;99.90
64012;DHT22;50211;52.768;12.124;2023-05-07T09:15:01;12.10;99.90
64012;DHT22;50211;52.768;12.124;2023-05-07T09:17:28;12.10;99.90
64012;DHT22;50211;52.768;12.124;2023-05-07T09:19:53;12.20;99.90
64012;DHT22;50211;52.768;12.124;2023-05-07T09:22:19;12.50;99.90
64012;DHT22;50211;52.768;12.124;2023-05-07T09:24:49;12.40;99.90
64012;DHT22;50211;52.768;12.124;2023-05-07T09:27:15;12.60;99.90
64012;DHT22;50211;52.768;12.124;2023-05-07T09:29:41;12.70;99.90
64012;DHT22;50211;52.768;12.124;2023-05-07T09:32:08;13.00;99.90
64012;DHT22;50211;52.768;12.124;2023-05-07T09:34:34;13.30;99.90
64012;DHT22;50211;52.768;12.124;2023-05-07T09:37:04;13.50;99.90
64012;DHT22;50211;52.768;12.124;2023-05-07T09:39:43;13.60;99.90
64012;DHT22;50211;52.768;12.124;2023-05-07T09:42:09;13.90;99.90
64012;DHT22;50211;52.768;12.124;2023-05-07T09:44:37;14.00;99.90
64012;DHT22;50211;52.768;12.124;2023-05-07T09:47:05;14.10;99.90
64012;DHT22;50211;52.768;12.124;2023-05-07T09:49:34;14.40;99.90
64012;DHT22;50211;52.768;12.124;2023-05-07T09:52:01;14.40;99.90
64012;DHT22;50211;52.768;12.124;2023-05-07T09:54:27;14.30;99.90
64012;DHT22;50211;52.768;12.124;2023-05-07T09:56:56;14.30;99.90
64012;DHT22;50211;52.768;12.124;2023-05-07T09:59:22;14.50;99.90
64012;DHT22;50211;52.768;12.124;2023-05-07T10:01:48;14.20;99.90
64012;DHT22;50211;52.768;12.124;2023-05-07T10:04:14;14.20;99.90
64012;DHT22;50211;52.768;12.124;2023-05-07T10:06:40;14.60;99.90
64012;DHT22;50211;52.768;12.124;2023-05-07T10:09:06;14.80;99.90
64012;DHT22;50211;52.768;12.124;2023-05-07T10:11:35;14.70;99.90
64012;DHT22;50211;52.768;12.124;2023-05-07T10:14:02;14.30;99.90
64012;DHT22;50211;52.768;12.124;2023-05-07T10:16:33;14.20;99.90
64012;DHT22;50211;52.768;12.124;2023-05-07T10:19:08;14.40;99.90
64012;DHT22;50211;52.768;12.124;2023-05-07T10:21:39;14.60;99.90
64012;DHT22;50211;52.768;12.124;2023-05-07T10:24:38;14.70;99.90
64012;DHT22;50211;52.768;12.124;2023-05-07T10:26:58;14.90;99.90
64012;DHT22;50211;52.768;12.124;2023-05-07T10:32:26;15.00;99.90
64012;DHT22;50211;52.768;12.124;2023-05-07T10:34:58;15.10;99.90
64012;DHT22;50211;52.768;12.124;2023-05-07T10:37:26;15.00;99.90
64012;DHT22;50211;52.768;12.124;2023-05-07T10:39:52;15.10;99.90
64012;DHT22;50211;52.768;12.124;2023-05-07T10:42:18;15.30;99.90
64012;DHT22;50211;52.768;12.124;2023-05-07T10:44:43;15.80;99.90
64012;DHT22;50211;52.768;12.124;2023-05-07T10:47:14;16.70;99.90
64012;DHT22;50211;52.768;12.124;2023-05-07T10:52:14;17.70;99.90
64012;DHT22;50211;52.768;12.124;2023-05-07T10:54:43;18.00;99.90
64012;DHT22;50211;52.768;12.124;2023-05-07T10:57:33;18.10;99.90
64012;DHT22;50211;52.768;12.124;2023-05-07T11:00:03;18.10;99.90
64012;DHT22;50211;52.768;12.124;2023-05-07T11:05:31;18.50;99.90
64012;DHT22;50211;52.768;12.124;2023-05-07T11:08:01;18.70;99.90
64012;DHT22;50211;52.768;12.124;2023-05-07T11:10:56;18.90;99.90
64012;DHT22;50211;52.768;12.124;2023-05-07T11:13:46;19.60;99.90
64012;DHT22;50211;52.768;12.124;2023-05-07T11:16:23;19.40;99.90
64012;DHT22;50211;52.768;12.124;2023-05-07T11:18:50;18.50;99.90
64012;DHT22;50211;52.768;12.124;2023-05-07T11:24:01;17.90;99.90
64012;DHT22;50211;52.768;12.124;2023-05-07T11:26:28;17.30;99.90
64012;DHT22;50211;52.768;12.124;2023-05-07T11:28:57;17.20;99.90
64012;DHT22;50211;52.768;12.124;2023-05-07T11:31:26;17.60;99.90
64012;DHT22;50211;52.768;12.124;2023-05-07T11:33:54;18.10;99.90
64012;DHT22;50211;52.768;12.124;2023-05-07T11:36:22;17.90;99.90
64012;DHT22;50211;52.768;12.124;2023-05-07T11:38:48;17.30;99.90
64012;DHT22;50211;52.768;12.124;2023-05-07T11:41:13;17.00;99.90
64012;DHT22;50211;52.768;12.124;2023-05-07T11:43:54;16.80;99.90
64012;DHT22;50211;52.768;12.124;2023-05-07T11:46:23;16.90;99.90
64012;DHT22;50211;52.768;12.124;2023-05-07T11:48:48;16.80;99.90
64012;DHT22;50211;52.768;12.124;2023-05-07T11:51:19;16.30;99.90
64012;DHT22;50211;52.768;12.124;2023-05-07T11:53:45;16.30;99.90
64012;DHT22;50211;52.768;12.124;2023-05-07T11:56:14;17.00;99.90
64012;DHT22;50211;52.768;12.124;2023-05-07T11:58:41;17.40;99.90
64012;DHT22;50211;52.768;12.124;2023-05-07T12:01:08;17.50;99.90
64012;DHT22;50211;52.768;12.124;2023-05-07T12:03:35;17.30;99.90
64012;DHT22;50211;52.768;12.124;2023-05-07T12:06:02;16.70;99.90
64012;DHT22;50211;52.768;12.124;2023-05-07T12:08:28;16.50;99.90
64012;DHT22;50211;52.768;12.124;2023-05-07T12:10:54;16.70;99.90
64012;DHT22;50211;52.768;12.124;2023-05-07T12:13:26;16.80;99.90
64012;DHT22;50211;52.768;12.124;2023-05-07T12:15:56;16.50;99.90
64012;DHT22;50211;52.768;12.124;2023-05-07T12:18:22;16.20;99.90
64012;DHT22;50211;52.768;12.124;2023-05-07T12:20:48;16.20;99.90
64012;DHT22;50211;52.768;12.124;2023-05-07T12:23:15;16.30;99.90
64012;DHT22;50211;52.768;12.124;2023-05-07T12:25:42;16.20;99.90
64012;DHT22;50211;52.768;12.124;2023-05-07T12:28:18;16.30;99.90
64012;DHT22;50211;52.768;12.124;2023-05-07T12:30:46;16.50;99.90
64012;DHT22;50211;52.768;12.124;2023-05-07T12:33:12;16.80;99.90
64012;DHT22;50211;52.768;12.124;2023-05-07T12:35:42;17.10;99.90
64012;DHT22;50211;52.768;12.124;2023-05-07T12:38:09;17.50;99.90
64012;DHT22;50211;52.768;12.124;2023-05-07T12:40:45;17.90;99.90
64012;DHT22;50211;52.768;12.124;2023-05-07T12:43:26;18.00;99.90
64012;DHT22;50211;52.768;12.124;2023-05-07T12:45:54;17.70;99.90
64012;DHT22;50211;52.768;12.124;2023-05-07T12:48:21;17.10;99.90
64012;DHT22;50211;52.768;12.124;2023-05-07T12:50:51;16.90;99.90
64012;DHT22;50211;52.768;12.124;2023-05-07T12:53:19;17.00;99.90
64012;DHT22;50211;52.768;12.124;2023-05-07T12:55:50;17.70;99.90
64012;DHT22;50211;52.768;12.124;2023-05-07T12:58:20;18.40;99.90
64012;DHT22;50211;52.768;12.124;2023-05-07T13:00:50;18.70;99.90
64012;DHT22;50211;52.768;12.124;2023-05-07T13:03:30;19.00;99.90
64012;DHT22;50211;52.768;12.124;2023-05-07T13:06:01;19.40;99.90
64012;DHT22;50211;52.768;12.124;2023-05-07T13:08:32;19.70;99.90
64012;DHT22;50211;52.768;12.124;2023-05-07T13:10:59;20.30;99.90
64012;DHT22;50211;52.768;12.124;2023-05-07T13:13:28;20.20;99.90
64012;DHT22;50211;52.768;12.124;2023-05-07T13:15:53;20.20;99.90
64012;DHT22;50211;52.768;12.124;2023-05-07T13:18:19;19.40;99.90
64012;DHT22;50211;52.768;12.124;2023-05-07T13:20:44;18.20;99.90
64012;DHT22;50211;52.768;12.124;2023-05-07T13:23:10;18.10;99.90
64012;DHT22;50211;52.768;12.124;2023-05-07T13:25:35;17.50;99.90
64012;DHT22;50211;52.768;12.124;2023-05-07T13:28:01;17.00;99.90
64012;DHT22;50211;52.768;12.124;2023-05-07T13:30:26;16.70;99.90
64012;DHT22;50211;52.768;12.124;2023-05-07T13:32:55;17.00;99.90
64012;DHT22;50211;52.768;12.124;2023-05-07T13:35:21;17.90;99.90
64012;DHT22;50211;52.768;12.124;2023-05-07T13:37:46;18.20;99.90
64012;DHT22;50211;52.768;12.124;2023-05-07T13:40:13;19.10;99.90
64012;DHT22;50211;52.768;12.124;2023-05-07T13:42:39;19.80;99.90
64012;DHT22;50211;52.768;12.124;2023-05-07T13:45:04;20.10;99.90
64012;DHT22;50211;52.768;12.124;2023-05-07T13:47:30;20.60;99.90
64012;DHT22;50211;52.768;12.124;2023-05-07T13:49:56;20.30;99.90
64012;DHT22;50211;52.768;12.124;2023-05-07T13:52:22;20.10;99.90
64012;DHT22;50211;52.768;12.124;2023-05-07T13:54:47;19.40;99.90
64012;DHT22;50211;52.768;12.124;2023-05-07T13:57:13;18.70;99.90
64012;DHT22;50211;52.768;12.124;2023-05-07T13:59:38;18.50;99.90
64012;DHT22;50211;52.768;12.124;2023-05-07T14:02:04;18.20;99.90
64012;DHT22;50211;52.768;12.124;2023-05-07T14:04:30;17.40;99.90
64012;DHT22;50211;52.768;12.124;2023-05-07T14:06:56;17.20;99.90
64012;DHT22;50211;52.768;12.124;2023-05-07T14:09:21;16.90;99.90
64012;DHT22;50211;52.768;12.124;2023-05-07T14:11:47;16.70;99.90
64012;DHT22;50211;52.768;12.124;2023-05-07T14:14:19;16.70;99.90
64012;DHT22;50211;52.768;12.124;2023-05-07T14:16:45;16.70;99.90
64012;DHT22;50211;52.768;12.124;2023-05-07T14:19:11;16.60;99.90
64012;DHT22;50211;52.768;12.124;2023-05-07T14:21:37;16.50;99.90
64012;DHT22;50211;52.768;12.124;2023-05-07T14:24:03;16.90;99.90
64012;DHT22;50211;52.768;12.124;2023-05-07T14:26:28;17.60;99.90
64012;DHT22;50211;52.768;12.124;2023-05-07T14:28:54;18.30;99.90
64012;DHT22;50211;52.768;12.124;2023-05-07T14:31:22;18.50;99.90
64012;DHT22;50211;52.768;12.124;2023-05-07T14:33:48;19.10;99.90
64012;DHT22;50211;52.768;12.124;2023-05-07T14:36:15;19.60;99.90
64012;DHT22;50211;52.768;12.124;2023-05-07T14:38:41;20.20;99.90
64012;DHT22;50211;52.768;12.124;2023-05-07T14:41:06;20.70;99.90
64012;DHT22;50211;52.768;12.124;2023-05-07T14:43:32;20.80;99.90
64012;DHT22;50211;52.768;12.124;2023-05-07T14:45:57;20.70;99.90
64012;DHT22;50211;52.768;12.124;2023-05-07T14:48:23;21.20;99.90
64012;DHT22;50211;52.768;12.124;2023-05-07T14:50:49;20.90;99.90
64012;DHT22;50211;52.768;12.124;2023-05-07T14:53:15;20.70;99.90
64012;DHT22;50211;52.768;12.124;2023-05-07T14:55:41;20.60;99.90
64012;DHT22;50211;52.768;12.124;2023-05-07T14:58:06;20.90;99.90
64012;DHT22;50211;52.768;12.124;2023-05-07T15:00:32;20.70;99.90
64012;DHT22;50211;52.768;12.124;2023-05-07T15:03:07;20.60;99.90
64012;DHT22;50211;52.768;12.124;2023-05-07T15:05:33;20.10;99.90
64012;DHT22;50211;52.768;12.124;2023-05-07T15:07:59;19.70;99.90
64012;DHT22;50211;52.768;12.124;2023-05-07T15:10:25;19.40;99.90
64012;DHT22;50211;52.768;12.124;2023-05-07T15:12:50;19.50;99.90
64012;DHT22;50211;52.768;12.124;2023-05-07T15:15:16;19.50;99.90
64012;DHT22;50211;52.768;12.124;2023-05-07T15:17:41;19.20;99.90
64012;DHT22;50211;52.768;12.124;2023-05-07T15:20:07;19.00;99.90
64012;DHT22;50211;52.768;12.124;2023-05-07T15:22:33;19.10;99.90
64012;DHT22;50211;52.768;12.124;2023-05-07T15:24:58;19.30;99.90
64012;DHT22;50211;52.768;12.124;2023-05-07T15:27:24;19.10;99.90
64012;DHT22;50211;52.768;12.124;2023-05-07T15:29:50;18.70;99.90
64012;DHT22;50211;52.768;12.124;2023-05-07T15:32:16;18.60;99.90